createdAt,value
2022-12-06T00:01:13.231Z,2.10
2022-12-06T00:03:42.593Z,1.67
2022-12-06T00:06:14.279Z,1.90
2022-12-06T00:08:43.125Z,1.90
2022-12-06T00:11:12.576Z,1.90
2022-12-06T00:13:42.025Z,1.90
2022-12-06T00:16:11.619Z,1.80
2022-12-06T00:18:41.225Z,2.37
2022-12-06T00:21:10.380Z,1.83
2022-12-06T00:23:41.246Z,1.93
2022-12-06T00:26:10.500Z,2.10
2022-12-06T00:28:39.569Z,2.27
2022-12-06T00:31:08.980Z,2.07
2022-12-06T00:33:38.023Z,2.37
2022-12-06T00:36:07.931Z,1.60
2022-12-06T00:38:36.606Z,1.93
2022-12-06T00:41:07.534Z,2.07
2022-12-06T00:43:37.068Z,2.00
2022-12-06T00:46:06.543Z,1.70
2022-12-06T00:48:35.293Z,2.00
2022-12-06T00:51:04.030Z,1.90
2022-12-06T00:53:32.953Z,2.10
2022-12-06T00:56:01.572Z,2.00
2022-12-06T00:58:31.712Z,2.20
2022-12-06T01:01:09.220Z,1.93
2022-12-06T01:03:38.095Z,2.17
2022-12-06T01:06:07.757Z,1.83
2022-12-06T01:08:36.420Z,2.27
2022-12-06T01:11:05.397Z,1.83
2022-12-06T01:13:35.776Z,2.30
2022-12-06T01:16:06.732Z,1.97
2022-12-06T01:18:35.466Z,2.03
2022-12-06T01:21:07.411Z,2.33
2022-12-06T01:23:36.248Z,2.20
2022-12-06T01:26:04.753Z,2.57
2022-12-06T01:28:33.279Z,2.50
2022-12-06T01:31:08.056Z,2.77
2022-12-06T01:33:36.980Z,2.77
2022-12-06T01:36:05.453Z,2.57
2022-12-06T01:38:34.131Z,2.33
2022-12-06T01:41:03.809Z,3.30
2022-12-06T01:43:36.725Z,2.50
2022-12-06T01:46:09.349Z,2.70
2022-12-06T01:48:39.403Z,2.47
2022-12-06T01:51:08.860Z,3.27
2022-12-06T01:53:38.232Z,3.17
2022-12-06T01:56:07.024Z,3.20
2022-12-06T01:58:38.287Z,2.93
2022-12-06T02:01:08.804Z,3.27
2022-12-06T02:03:38.155Z,2.97
2022-12-06T02:06:08.296Z,3.00
2022-12-06T02:08:37.593Z,3.43
2022-12-06T02:11:06.821Z,3.00
2022-12-06T02:13:36.275Z,2.70
2022-12-06T02:16:14.129Z,2.70
2022-12-06T02:18:46.546Z,3.00
2022-12-06T02:21:18.210Z,2.90
2022-12-06T02:24:04.219Z,2.77
2022-12-06T02:26:37.846Z,2.33
2022-12-06T02:29:16.337Z,2.60
2022-12-06T02:31:50.744Z,3.00
2022-12-06T02:34:20.548Z,2.80
2022-12-06T02:36:53.239Z,3.30
2022-12-06T02:39:25.340Z,2.67
2022-12-06T02:41:56.921Z,2.70
2022-12-06T02:44:27.041Z,2.80
2022-12-06T02:46:58.729Z,2.53
2022-12-06T02:49:28.617Z,2.67
2022-12-06T02:51:58.288Z,2.80
2022-12-06T02:54:27.709Z,2.70
2022-12-06T02:56:56.248Z,2.50
2022-12-06T02:59:24.683Z,2.50
2022-12-06T03:01:55.049Z,2.97
2022-12-06T03:04:46.557Z,2.60
2022-12-06T03:07:23.849Z,2.60
2022-12-06T03:10:00.776Z,2.57
2022-12-06T03:12:32.759Z,2.43
2022-12-06T03:15:05.132Z,2.47
2022-12-06T03:17:38.549Z,2.43
2022-12-06T03:20:12.473Z,3.10
2022-12-06T03:22:42.837Z,2.70
2022-12-06T03:25:12.303Z,2.57
2022-12-06T03:27:42.461Z,2.60
2022-12-06T03:30:12.999Z,2.50
2022-12-06T03:32:43.455Z,2.60
2022-12-06T03:35:14.794Z,2.40
2022-12-06T03:37:44.607Z,2.47
2022-12-06T03:40:16.716Z,2.43
2022-12-06T03:42:45.490Z,2.40
2022-12-06T03:45:14.325Z,2.47
2022-12-06T03:47:45.160Z,2.27
2022-12-06T03:50:17.305Z,2.07
2022-12-06T03:52:45.873Z,2.53
2022-12-06T03:55:14.357Z,2.47
2022-12-06T03:57:42.913Z,2.10
2022-12-06T04:00:11.761Z,2.80
2022-12-06T04:02:40.261Z,2.00
2022-12-06T04:05:08.923Z,2.27
2022-12-06T04:07:38.982Z,2.40
2022-12-06T04:10:08.094Z,2.17
2022-12-06T04:12:54.349Z,2.20
2022-12-06T04:15:23.845Z,2.50
2022-12-06T04:18:09.718Z,2.40
2022-12-06T04:20:59.315Z,2.77
2022-12-06T04:23:29.756Z,2.40
2022-12-06T04:25:58.275Z,2.50
2022-12-06T04:28:44.328Z,2.27
2022-12-06T04:31:30.317Z,2.70
2022-12-06T04:34:16.772Z,2.10
2022-12-06T04:37:03.185Z,2.10
2022-12-06T04:39:33.490Z,2.30
2022-12-06T04:42:19.729Z,2.60
2022-12-06T04:44:48.492Z,2.47
2022-12-06T04:47:17.198Z,2.20
2022-12-06T04:49:45.647Z,1.90
2022-12-06T04:52:14.564Z,2.00
2022-12-06T04:54:44.733Z,1.70
2022-12-06T04:57:14.190Z,2.10
2022-12-06T04:59:43.756Z,2.20
2022-12-06T05:02:13.831Z,2.10
2022-12-06T05:04:42.278Z,2.10
2022-12-06T05:07:11.816Z,2.17
2022-12-06T05:09:40.428Z,2.10
2022-12-06T05:12:10.565Z,2.00
2022-12-06T05:14:39.115Z,2.17
2022-12-06T05:17:07.582Z,1.90
2022-12-06T05:19:36.151Z,2.23
2022-12-06T05:22:04.698Z,2.10
2022-12-06T05:24:33.169Z,1.90
2022-12-06T05:27:01.778Z,1.80
2022-12-06T05:29:31.869Z,2.10
2022-12-06T05:32:00.427Z,2.20
2022-12-06T05:34:29.079Z,1.73
2022-12-06T05:36:57.611Z,1.97
2022-12-06T05:39:26.164Z,1.87
2022-12-06T05:41:54.811Z,2.00
2022-12-06T05:44:23.590Z,1.60
2022-12-06T05:46:53.407Z,1.93
2022-12-06T05:49:21.932Z,1.83
2022-12-06T05:51:50.577Z,1.73
2022-12-06T05:54:19.122Z,2.00
2022-12-06T05:56:47.573Z,1.53
2022-12-06T05:59:16.325Z,2.40
2022-12-06T06:01:44.813Z,2.13
2022-12-06T06:04:14.673Z,1.90
2022-12-06T06:06:43.365Z,2.07
2022-12-06T06:09:11.809Z,2.60
2022-12-06T06:11:40.272Z,2.47
2022-12-06T06:14:09.057Z,2.10
2022-12-06T06:16:37.537Z,2.30
2022-12-06T06:19:06.031Z,2.17
2022-12-06T06:21:35.962Z,2.10
2022-12-06T06:24:04.471Z,2.50
2022-12-06T06:26:32.987Z,1.90
2022-12-06T06:29:01.861Z,2.20
2022-12-06T06:38:16.476Z,3.38
2022-12-06T06:40:45.016Z,7.30
2022-12-06T06:43:20.442Z,4.20
2022-12-06T06:45:53.896Z,2.60
2022-12-06T06:48:23.257Z,2.97
2022-12-06T06:50:57.028Z,2.20
2022-12-06T06:53:28.050Z,1.90
2022-12-06T06:55:56.784Z,1.83
2022-12-06T06:58:25.522Z,2.27
2022-12-06T07:00:55.349Z,1.93
2022-12-06T07:03:24.494Z,1.80
2022-12-06T07:05:53.521Z,2.10
2022-12-06T07:08:22.451Z,1.97
2022-12-06T07:10:52.433Z,1.70
2022-12-06T07:13:22.348Z,1.57
2022-12-06T07:15:51.281Z,1.87
2022-12-06T07:18:20.349Z,2.10
2022-12-06T07:20:49.284Z,1.90
2022-12-06T07:23:18.281Z,1.77
2022-12-06T07:25:46.792Z,1.93
2022-12-06T07:28:16.791Z,2.00
2022-12-06T07:30:45.572Z,2.17
2022-12-06T07:33:14.089Z,2.10
2022-12-06T07:36:11.031Z,2.03
2022-12-06T07:38:31.358Z,2.07
2022-12-06T07:41:05.056Z,1.83
2022-12-06T07:43:52.761Z,2.10
2022-12-06T07:46:21.301Z,2.20
2022-12-06T07:48:50.049Z,2.13
2022-12-06T07:51:19.483Z,2.20
2022-12-06T07:53:48.000Z,2.07
2022-12-06T07:56:16.695Z,2.00
2022-12-06T07:58:46.705Z,1.93
2022-12-06T08:01:15.319Z,2.10
2022-12-06T08:03:43.959Z,1.63
2022-12-06T08:06:12.868Z,1.80
2022-12-06T08:08:41.357Z,1.87
2022-12-06T08:11:10.752Z,2.07
2022-12-06T08:13:39.908Z,1.80
2022-12-06T08:16:12.249Z,1.70
2022-12-06T08:18:41.528Z,2.10
2022-12-06T08:21:10.606Z,1.97
2022-12-06T08:23:39.144Z,2.33
2022-12-06T08:26:08.853Z,2.17
2022-12-06T08:28:38.281Z,2.50
2022-12-06T08:31:12.250Z,2.27
2022-12-06T08:33:41.397Z,2.43
2022-12-06T08:36:10.306Z,2.23
2022-12-06T08:38:39.229Z,2.30
2022-12-06T08:41:28.149Z,2.13
2022-12-06T08:43:57.255Z,1.93
2022-12-06T08:46:27.485Z,2.17
2022-12-06T08:48:56.384Z,1.70
2022-12-06T08:51:25.205Z,1.70
2022-12-06T08:53:54.406Z,1.60
2022-12-06T08:56:23.019Z,2.20
2022-12-06T08:58:51.913Z,1.80
2022-12-06T09:01:21.560Z,2.03
2022-12-06T09:03:51.605Z,1.83
2022-12-06T09:06:20.932Z,1.70
2022-12-06T09:08:49.473Z,1.60
2022-12-06T09:11:18.489Z,1.70
2022-12-06T09:13:47.152Z,1.57
2022-12-06T09:16:17.771Z,1.70
2022-12-06T09:18:46.478Z,1.37
2022-12-06T09:21:17.627Z,1.57
2022-12-06T09:23:46.555Z,1.43
2022-12-06T09:26:15.549Z,1.80
2022-12-06T09:28:44.692Z,1.50
2022-12-06T09:31:13.437Z,1.67
2022-12-06T09:33:42.178Z,1.40
2022-12-06T09:36:13.153Z,1.90
2022-12-06T09:38:44.815Z,1.60
2022-12-06T09:41:20.396Z,1.70
2022-12-06T09:43:55.828Z,1.63
2022-12-06T09:46:30.188Z,2.03
2022-12-06T09:49:09.007Z,1.90
2022-12-06T09:51:46.645Z,1.87
2022-12-06T09:54:23.382Z,1.73
2022-12-06T09:56:53.478Z,1.50
2022-12-06T09:59:24.413Z,1.90
2022-12-06T10:01:59.758Z,2.20
2022-12-06T10:04:39.708Z,1.57
2022-12-06T10:07:10.679Z,1.47
2022-12-06T10:09:45.001Z,1.60
2022-12-06T10:12:20.143Z,1.70
2022-12-06T10:15:01.008Z,1.70
2022-12-06T10:17:33.388Z,1.30
2022-12-06T10:20:05.664Z,1.80
2022-12-06T10:22:39.252Z,1.50
2022-12-06T10:25:14.978Z,1.37
2022-12-06T10:27:50.781Z,1.47
2022-12-06T10:30:20.780Z,1.30
2022-12-06T10:32:53.290Z,1.20
2022-12-06T10:35:26.064Z,1.43
2022-12-06T10:37:59.810Z,1.90
2022-12-06T10:40:31.943Z,1.70
2022-12-06T10:43:02.514Z,1.20
2022-12-06T10:45:51.233Z,1.73
2022-12-06T10:48:23.381Z,1.40
2022-12-06T10:50:57.222Z,1.10
2022-12-06T10:53:27.386Z,1.17
2022-12-06T10:55:59.781Z,1.13
2022-12-06T10:58:32.794Z,1.30
2022-12-06T11:01:02.598Z,1.30
2022-12-06T11:03:33.340Z,1.10
2022-12-06T11:06:04.663Z,1.67
2022-12-06T11:08:35.764Z,1.23
2022-12-06T11:11:07.149Z,1.40
2022-12-06T11:13:39.255Z,1.40
2022-12-06T11:16:09.019Z,1.10
2022-12-06T11:18:38.214Z,1.30
2022-12-06T11:21:14.895Z,1.30
2022-12-06T11:23:47.473Z,1.07
2022-12-06T11:26:23.063Z,1.07
2022-12-06T11:29:00.275Z,1.30
2022-12-06T11:31:30.285Z,1.33
2022-12-06T11:34:00.069Z,1.20
2022-12-06T11:36:29.585Z,1.50
2022-12-06T11:38:58.287Z,1.10
2022-12-06T11:41:29.695Z,1.70
2022-12-06T11:43:58.981Z,1.50
2022-12-06T11:46:28.001Z,1.30
2022-12-06T11:48:56.721Z,1.40
2022-12-06T11:51:26.211Z,1.27
2022-12-06T11:53:58.643Z,1.23
2022-12-06T11:56:30.300Z,1.00
2022-12-06T11:59:02.693Z,1.30
2022-12-06T12:01:42.183Z,1.40
2022-12-06T12:04:27.235Z,1.30
2022-12-06T12:06:58.865Z,1.23
2022-12-06T12:09:28.880Z,1.10
2022-12-06T12:12:01.293Z,1.10
2022-12-06T12:14:38.298Z,1.10
2022-12-06T12:17:07.258Z,1.10
2022-12-06T12:19:38.275Z,1.20
2022-12-06T12:22:16.329Z,0.90
2022-12-06T12:27:43.827Z,1.07
2022-12-06T12:30:29.637Z,1.73
2022-12-06T12:33:17.900Z,1.17
2022-12-06T12:35:47.537Z,1.10
2022-12-06T12:38:18.850Z,0.80
2022-12-06T12:40:48.481Z,1.10
2022-12-06T12:43:21.857Z,1.10
2022-12-06T12:46:08.533Z,1.00
2022-12-06T12:48:37.580Z,0.80
2022-12-06T12:51:07.677Z,1.10
2022-12-06T12:53:38.398Z,1.00
2022-12-06T12:56:10.524Z,0.90
2022-12-06T12:58:40.618Z,1.20
2022-12-06T13:01:14.980Z,0.80
2022-12-06T13:03:51.145Z,1.00
2022-12-06T13:06:27.780Z,1.13
2022-12-06T13:08:58.723Z,1.27
2022-12-06T13:11:27.876Z,1.13
2022-12-06T13:13:59.326Z,1.10
2022-12-06T13:16:29.833Z,1.30
2022-12-06T13:18:59.828Z,1.10
2022-12-06T13:21:31.624Z,1.20
2022-12-06T13:24:03.713Z,1.57
2022-12-06T13:26:34.994Z,1.43
2022-12-06T13:29:10.204Z,1.63
2022-12-06T13:31:41.190Z,1.33
2022-12-06T13:34:18.325Z,1.20
2022-12-06T13:36:47.892Z,1.40
2022-12-06T13:39:39.340Z,1.17
2022-12-06T13:42:21.478Z,1.00
2022-12-06T13:44:55.393Z,1.30
2022-12-06T13:47:43.213Z,1.40
2022-12-06T13:50:30.669Z,1.13
2022-12-06T13:53:02.423Z,1.27
2022-12-06T13:55:45.759Z,1.30
2022-12-06T13:58:29.161Z,1.30
2022-12-06T14:00:59.429Z,1.10
2022-12-06T14:03:41.133Z,1.30
2022-12-06T14:06:15.299Z,1.03
2022-12-06T14:08:45.263Z,1.20
2022-12-06T14:11:22.605Z,1.03
2022-12-06T14:14:00.619Z,1.20
2022-12-06T14:16:33.280Z,0.90
2022-12-06T14:19:02.023Z,1.20
2022-12-06T14:21:32.184Z,1.40
2022-12-06T14:24:00.661Z,1.40
2022-12-06T14:26:30.084Z,1.20
2022-12-06T14:29:00.076Z,1.00
2022-12-06T14:31:30.881Z,1.10
2022-12-06T14:34:00.787Z,1.30
2022-12-06T14:36:31.312Z,1.07
2022-12-06T14:39:01.847Z,1.30
2022-12-06T14:41:48.862Z,0.97
2022-12-06T14:44:18.382Z,1.10
2022-12-06T14:46:48.016Z,0.80
2022-12-06T14:56:04.355Z,1.10
2022-12-06T14:58:34.248Z,0.93
2022-12-06T15:01:03.763Z,1.17
2022-12-06T15:03:33.551Z,1.27
2022-12-06T15:06:16.393Z,1.30
2022-12-06T15:08:48.103Z,1.27
2022-12-06T15:11:49.820Z,1.10
2022-12-06T15:14:19.906Z,1.00
2022-12-06T15:16:57.662Z,1.13
2022-12-06T15:19:28.609Z,1.23
2022-12-06T15:21:57.232Z,1.10
2022-12-06T15:24:26.452Z,1.00
2022-12-06T15:26:56.664Z,1.20
2022-12-06T15:29:25.339Z,1.10
2022-12-06T15:31:54.799Z,0.93
2022-12-06T15:34:25.420Z,1.37
2022-12-06T15:37:15.183Z,1.50
2022-12-06T15:39:43.392Z,1.90
2022-12-06T15:42:17.845Z,1.80
2022-12-06T15:44:49.414Z,2.00
2022-12-06T15:47:18.499Z,1.10
2022-12-06T15:49:47.026Z,1.67
2022-12-06T15:52:17.502Z,2.00
2022-12-06T15:54:46.103Z,1.50
2022-12-06T15:57:16.073Z,1.30
2022-12-06T15:59:44.712Z,1.30
2022-12-06T16:02:17.021Z,1.40
2022-12-06T16:04:45.686Z,1.20
2022-12-06T16:07:18.823Z,1.20
2022-12-06T16:09:48.041Z,1.10
2022-12-06T16:12:18.212Z,1.00
2022-12-06T16:14:46.660Z,1.50
2022-12-06T16:17:15.475Z,1.10
2022-12-06T16:20:01.615Z,1.20
2022-12-06T16:22:47.689Z,1.40
2022-12-06T16:25:16.133Z,1.23
2022-12-06T16:27:46.109Z,1.00
2022-12-06T16:30:14.988Z,1.40
2022-12-06T16:32:43.576Z,1.30
2022-12-06T16:35:12.032Z,1.17
2022-12-06T16:37:40.637Z,1.50
2022-12-06T16:40:11.065Z,1.67
2022-12-06T16:42:39.511Z,2.17
2022-12-06T16:45:09.894Z,2.30
2022-12-06T16:47:38.428Z,1.87
2022-12-06T16:50:08.063Z,2.13
2022-12-06T16:52:36.587Z,1.80
2022-12-06T16:55:05.222Z,2.00
2022-12-06T16:57:33.713Z,2.03
2022-12-06T17:00:02.299Z,1.73
2022-12-06T17:02:33.288Z,2.13
2022-12-06T17:05:06.455Z,2.00
2022-12-06T17:07:35.509Z,2.10
2022-12-06T17:10:04.019Z,2.20
2022-12-06T17:12:32.573Z,2.00
2022-12-06T17:15:01.695Z,2.43
2022-12-06T17:17:31.729Z,2.33
2022-12-06T17:20:00.339Z,2.30
2022-12-06T17:22:29.026Z,2.47
2022-12-06T17:24:57.464Z,2.50
2022-12-06T17:27:26.006Z,2.23
2022-12-06T17:29:54.556Z,2.53
2022-12-06T17:32:23.676Z,2.57
2022-12-06T17:34:53.825Z,2.00
2022-12-06T17:37:22.361Z,2.10
2022-12-06T17:39:50.821Z,2.20
2022-12-06T17:42:36.956Z,2.13
2022-12-06T17:45:06.140Z,2.60
2022-12-06T17:47:34.943Z,2.50
2022-12-06T17:50:05.562Z,4.47
2022-12-06T17:52:34.208Z,8.33
2022-12-06T17:55:02.841Z,2.60
2022-12-06T17:57:31.710Z,2.10
2022-12-06T18:00:00.181Z,1.40
2022-12-06T18:02:28.767Z,1.50
2022-12-06T18:04:57.973Z,1.63
2022-12-06T18:07:27.800Z,1.43
2022-12-06T18:09:56.248Z,1.73
2022-12-06T18:12:25.857Z,1.87
2022-12-06T18:14:54.990Z,1.80
2022-12-06T18:17:23.449Z,1.93
2022-12-06T18:19:52.125Z,1.80
2022-12-06T18:22:20.770Z,1.93
2022-12-06T18:24:50.618Z,2.00
2022-12-06T18:27:19.240Z,2.33
2022-12-06T18:29:47.720Z,2.53
2022-12-06T18:32:16.453Z,2.30
2022-12-06T18:34:45.108Z,2.30
2022-12-06T18:37:13.625Z,2.60
2022-12-06T18:39:42.076Z,1.80
2022-12-06T18:42:12.165Z,1.50
2022-12-06T18:44:40.848Z,1.43
2022-12-06T18:47:09.306Z,1.60
2022-12-06T18:49:38.107Z,1.40
2022-12-06T18:52:06.657Z,1.70
2022-12-06T18:54:35.103Z,1.47
2022-12-06T18:57:03.802Z,1.70
2022-12-06T18:59:37.629Z,2.10
2022-12-06T19:02:06.351Z,1.77
2022-12-06T19:04:34.892Z,1.60
2022-12-06T19:07:03.347Z,1.27
2022-12-06T19:09:31.933Z,1.53
2022-12-06T19:12:00.381Z,1.47
2022-12-06T19:14:28.838Z,1.33
2022-12-06T19:16:58.865Z,1.63
2022-12-06T19:19:28.425Z,1.50
2022-12-06T19:21:57.622Z,1.77
2022-12-06T19:24:28.609Z,1.30
2022-12-06T19:26:58.054Z,1.47
2022-12-06T19:29:27.097Z,1.60
2022-12-06T19:31:55.866Z,1.53
2022-12-06T19:34:27.143Z,1.50
2022-12-06T19:36:57.119Z,1.60
2022-12-06T19:39:26.995Z,1.77
2022-12-06T19:42:13.225Z,1.57
2022-12-06T19:44:41.779Z,1.90
2022-12-06T19:47:10.220Z,1.57
2022-12-06T19:49:40.189Z,3.67
2022-12-06T19:52:08.716Z,3.67
2022-12-06T19:54:37.676Z,4.07
2022-12-06T19:57:06.707Z,2.47
2022-12-06T19:59:39.168Z,1.50
2022-12-06T20:02:09.746Z,0.90
2022-12-06T20:04:39.595Z,2.87
2022-12-06T20:07:10.101Z,1.10
2022-12-06T20:09:39.408Z,1.10
2022-12-06T20:12:08.096Z,1.10
2022-12-06T20:14:38.489Z,0.93
2022-12-06T20:17:08.977Z,1.13
2022-12-06T20:19:37.469Z,0.90
2022-12-06T20:22:05.919Z,1.20
2022-12-06T20:24:36.125Z,1.10
2022-12-06T20:27:04.618Z,1.00
2022-12-06T20:29:33.086Z,1.00
2022-12-06T20:32:01.809Z,0.90
2022-12-06T20:34:33.915Z,0.80
2022-12-06T20:37:04.669Z,1.00
2022-12-06T20:39:35.499Z,0.80
2022-12-06T20:42:07.029Z,1.00
2022-12-06T20:44:36.376Z,1.13
2022-12-06T20:47:04.954Z,0.70
2022-12-06T20:49:33.610Z,0.90
2022-12-06T20:52:03.587Z,0.90
2022-12-06T20:54:32.179Z,0.80
2022-12-06T20:57:00.636Z,0.80
2022-12-06T20:59:30.655Z,1.10
2022-12-06T21:01:59.288Z,1.00
2022-12-06T21:04:28.074Z,0.93
2022-12-06T21:06:56.882Z,1.07
2022-12-06T21:09:25.435Z,0.83
2022-12-06T21:11:53.911Z,0.70
2022-12-06T21:14:22.467Z,1.00
2022-12-06T21:16:52.460Z,0.90
2022-12-06T21:19:24.092Z,0.60
2022-12-06T21:21:57.288Z,0.87
2022-12-06T21:24:25.733Z,0.70
2022-12-06T21:26:54.266Z,0.90
2022-12-06T21:29:30.522Z,1.00
2022-12-06T21:32:01.561Z,0.90
2022-12-06T21:34:30.171Z,0.80
2022-12-06T21:36:58.662Z,0.93
2022-12-06T21:39:27.277Z,0.70
2022-12-06T21:41:55.837Z,0.63
2022-12-06T21:44:24.361Z,0.80
2022-12-06T21:46:53.686Z,0.80
2022-12-06T21:49:23.687Z,0.90
2022-12-06T21:51:58.465Z,1.03
2022-12-06T21:54:29.962Z,1.00
2022-12-06T21:56:59.143Z,1.00
2022-12-06T21:59:28.043Z,1.00
2022-12-06T22:01:56.771Z,1.13
2022-12-06T22:04:26.635Z,1.13
2022-12-06T22:06:55.088Z,1.00
2022-12-06T22:09:23.744Z,1.00
2022-12-06T22:11:52.297Z,1.00
2022-12-06T22:14:20.866Z,0.90
2022-12-06T22:16:51.195Z,1.10
2022-12-06T22:19:19.715Z,1.00
2022-12-06T22:21:49.728Z,1.00
2022-12-06T22:24:18.365Z,0.90
2022-12-06T22:26:46.827Z,0.93
2022-12-06T22:29:15.424Z,0.90
2022-12-06T22:31:44.346Z,1.10
2022-12-06T22:34:13.009Z,0.87
2022-12-06T22:36:41.613Z,0.90
2022-12-06T22:39:12.473Z,0.80
2022-12-06T22:41:40.934Z,0.73
2022-12-06T22:44:09.544Z,0.80
2022-12-06T22:46:38.836Z,1.00
2022-12-06T22:49:07.571Z,1.10
2022-12-06T22:51:37.540Z,0.90
2022-12-06T22:54:07.187Z,1.10
2022-12-06T22:56:37.176Z,1.20
2022-12-06T22:59:05.625Z,1.40
2022-12-06T23:01:35.105Z,1.20
2022-12-06T23:04:05.567Z,1.10
2022-12-06T23:06:36.361Z,1.07
2022-12-06T23:09:05.474Z,1.00
2022-12-06T23:11:35.272Z,1.17
2022-12-06T23:14:05.607Z,1.00
2022-12-06T23:16:34.346Z,1.13
2022-12-06T23:19:03.560Z,1.20
2022-12-06T23:21:32.869Z,1.20
2022-12-06T23:24:02.417Z,0.70
2022-12-06T23:26:32.477Z,0.90
2022-12-06T23:29:01.111Z,1.10
2022-12-06T23:31:32.096Z,1.03
2022-12-06T23:34:01.094Z,0.70
2022-12-06T23:36:32.072Z,0.80
2022-12-06T23:39:00.611Z,1.00
2022-12-06T23:41:29.761Z,0.77
2022-12-06T23:43:58.716Z,0.80
2022-12-06T23:46:28.153Z,0.70
2022-12-06T23:48:58.391Z,0.70
2022-12-06T23:51:28.203Z,0.80
2022-12-06T23:53:58.008Z,0.70
2022-12-06T23:56:27.336Z,0.53
2022-12-06T23:58:55.902Z,0.60
